Time;durP1;ratioP1;P1;durP2;ratioP2;P2;SDS_P1;SDS_P2;PMS_P1;PMS_P2;Temp;Humidity;BMP_temperature;BMP_pressure;BME280_temperature;BME280_humidity;BME280_pressure;Samples;Min_cycle;Max_cycle;Signal;HPM_P1;HPM_P2
2023/02/06 00:00:22;;;;;;;57.43;28.20;;;;;;;0.86;57.16;102577.94;5011704;28;98165;-77
2023/02/06 00:02:48;;;;;;;58.03;29.70;;;;;;;0.85;57.11;102562.38;5024542;27;99319;-76
2023/02/06 00:05:14;;;;;;;59.40;29.73;;;;;;;0.83;57.14;102567.47;5000424;27;97411;-77
2023/02/06 00:07:40;;;;;;;68.53;34.43;;;;;;;0.83;57.35;102562.28;5016715;27;96946;-79
2023/02/06 00:10:06;;;;;;;59.00;32.20;;;;;;;0.78;57.05;102540.53;4997687;28;101015;-77
2023/02/06 00:12:32;;;;;;;63.97;32.07;;;;;;;0.79;57.75;102534.56;5014399;28;101136;-76
2023/02/06 00:14:57;;;;;;;66.23;33.60;;;;;;;0.81;56.92;102547.53;4997191;27;97305;-76
2023/02/06 00:17:23;;;;;;;64.47;33.43;;;;;;;0.80;57.41;102536.31;4995872;28;96782;-77
2023/02/06 00:19:48;;;;;;;66.00;33.20;;;;;;;0.81;57.33;102535.47;5015085;27;101138;-76
2023/02/06 00:22:14;;;;;;;63.87;32.17;;;;;;;0.80;57.60;102535.44;5005491;28;101317;-77
2023/02/06 00:24:39;;;;;;;64.07;32.37;;;;;;;0.57;57.31;102506.03;5000855;27;96760;-78
2023/02/06 00:27:06;;;;;;;62.87;30.83;;;;;;;0.83;57.03;102551.06;5003638;28;97159;-76
2023/02/06 00:29:32;;;;;;;60.23;30.97;;;;;;;0.82;57.24;102545.00;4991389;28;100916;-77
2023/02/06 00:31:57;;;;;;;60.87;29.67;;;;;;;0.79;57.09;102551.78;5013337;28;97781;-76
2023/02/06 00:34:23;;;;;;;60.77;31.00;;;;;;;0.60;57.40;102526.84;5010193;28;100012;-78
2023/02/06 00:36:50;;;;;;;64.03;32.30;;;;;;;0.71;57.73;102537.63;5032548;27;97466;-75
2023/02/06 00:39:19;;;;;;;60.57;31.57;;;;;;;0.73;57.79;102538.56;5007031;27;98928;-78
2023/02/06 00:41:44;;;;;;;64.17;32.07;;;;;;;0.75;57.75;102544.69;5019597;27;97936;-78
2023/02/06 00:44:10;;;;;;;60.83;32.77;;;;;;;0.71;57.48;102554.03;5014056;27;96790;-76
2023/02/06 00:46:36;;;;;;;64.60;32.20;;;;;;;0.77;57.11;102576.66;5029169;27;97124;-76
2023/02/06 00:49:01;;;;;;;61.43;31.90;;;;;;;0.76;57.29;102580.97;5012179;27;100196;-79
2023/02/06 00:51:28;;;;;;;62.43;30.93;;;;;;;0.72;57.37;102571.28;5013367;28;98146;-77
2023/02/06 00:53:53;;;;;;;62.37;33.50;;;;;;;0.74;57.66;102572.25;5010886;27;96917;-84
2023/02/06 00:56:19;;;;;;;64.93;31.33;;;;;;;0.75;57.48;102575.72;5025881;28;96942;-78
2023/02/06 00:58:45;;;;;;;60.53;31.63;;;;;;;0.74;57.42;102566.19;5008517;28;101744;-79
2023/02/06 01:01:11;;;;;;;68.67;35.03;;;;;;;0.75;57.00;102560.19;4998825;28;97943;-78
2023/02/06 01:03:37;;;;;;;62.90;31.50;;;;;;;0.75;57.23;102565.38;4999958;27;97295;-79
2023/02/06 01:06:03;;;;;;;62.80;33.70;;;;;;;0.78;57.11;102578.44;5014260;27;96823;-77
2023/02/06 01:08:29;;;;;;;66.53;32.60;;;;;;;0.65;57.46;102556.34;5017233;27;101020;-79
2023/02/06 01:10:58;;;;;;;62.93;31.13;;;;;;;0.77;57.76;102569.78;5010539;27;100834;-80
2023/02/06 01:13:24;;;;;;;58.00;32.13;;;;;;;0.77;57.17;102558.56;5012168;28;96896;-76
2023/02/06 01:15:49;;;;;;;60.40;31.93;;;;;;;0.76;57.41;102559.41;5014432;27;97334;-78
2023/02/06 01:18:15;;;;;;;61.93;31.27;;;;;;;0.72;57.94;102554.91;5010722;27;101472;-77
2023/02/06 01:20:40;;;;;;;66.93;33.17;;;;;;;0.71;57.43;102559.19;4986815;27;101925;-79
2023/02/06 01:23:06;;;;;;;62.47;31.73;;;;;;;0.65;57.74;102540.84;5007429;27;96743;-78
2023/02/06 01:25:31;;;;;;;63.03;32.40;;;;;;;0.64;57.44;102536.47;5042395;27;97028;-77
2023/02/06 01:27:57;;;;;;;65.23;31.27;;;;;;;0.64;57.26;102521.88;5053910;27;98156;-78
2023/02/06 01:30:23;;;;;;;72.30;33.87;;;;;;;0.65;57.37;102533.97;5052371;27;100190;-78
2023/02/06 01:32:48;;;;;;;61.57;30.40;;;;;;;0.62;57.25;102528.66;5053373;27;97215;-76
2023/02/06 01:35:14;;;;;;;66.73;33.00;;;;;;;0.60;57.88;102529.41;5051978;27;97275;-81
2023/02/06 01:37:40;;;;;;;68.07;33.60;;;;;;;0.54;58.10;102529.16;5033475;27;101314;-77
2023/02/06 01:40:08;;;;;;;62.73;30.73;;;;;;;0.43;57.33;102501.16;5049917;27;101784;-76
2023/02/06 01:42:38;;;;;;;61.40;31.00;;;;;;;0.56;57.93;102525.84;5056750;27;97322;-80
2023/02/06 01:45:25;;;;;;;61.77;31.70;;;;;;;0.52;57.96;102521.34;5069919;27;97146;-77
2023/02/06 01:47:54;;;;;;;65.33;33.17;;;;;;;0.50;57.99;102525.59;5066985;27;98459;-77
2023/02/06 01:50:20;;;;;;;62.73;31.73;;;;;;;0.49;57.56;102522.91;5044713;27;101272;-77
2023/02/06 01:52:46;;;;;;;61.50;29.90;;;;;;;0.49;57.91;102528.09;5071382;27;97225;-78
2023/02/06 01:55:12;;;;;;;58.17;30.67;;;;;;;0.52;57.75;102530.78;5057275;27;98043;-76
2023/02/06 01:57:39;;;;;;;64.47;31.27;;;;;;;0.44;57.85;102521.03;5030790;27;101728;-79
2023/02/06 02:00:07;;;;;;;58.47;30.50;;;;;;;0.46;58.36;102531.41;5033275;27;97462;-83
2023/02/06 02:02:41;;;;;;;58.80;31.00;;;;;;;0.45;57.79;102532.25;5066337;27;96744;-77
2023/02/06 02:05:08;;;;;;;69.80;34.43;;;;;;;0.40;58.04;102523.41;5050892;27;96835;-77
2023/02/06 02:08:00;;;;;;;72.57;33.20;;;;;;;0.38;58.01;102525.06;5047645;27;101770;-78
2023/02/06 02:10:29;;;;;;;69.38;33.38;;;;;;;0.28;57.95;102516.03;5050245;27;101324;-78
2023/02/06 02:12:55;;;;;;;68.23;31.83;;;;;;;0.42;58.48;102534.69;5048892;27;96832;-82
2023/02/06 02:15:25;;;;;;;66.50;32.93;;;;;;;0.26;58.11;102509.00;5038116;27;97093;-76
2023/02/06 02:18:23;;;;;;;64.47;32.77;;;;;;;0.34;57.93;102529.19;5029555;27;101816;-78
2023/02/06 02:21:15;;;;;;;65.07;31.60;;;;;;;0.37;57.83;102539.66;5061749;27;101444;-77
2023/02/06 02:24:10;;;;;;;68.38;33.38;;;;;;;0.37;58.06;102531.91;5066416;27;96872;-78
2023/02/06 02:27:14;;;;;;;65.87;32.40;;;;;;;0.36;57.83;102522.41;5030057;27;97234;-77
2023/02/06 02:30:18;;;;;;;62.07;32.53;;;;;;;0.38;58.69;102519.91;5003442;27;101294;-80
2023/02/06 02:33:01;;;;;;;65.40;31.87;;;;;;;0.37;58.73;102520.69;5030374;27;98061;-82
2023/02/06 02:35:32;;;;;;;60.93;30.30;;;;;;;0.36;58.59;102514.66;5015356;27;97035;-76
2023/02/06 02:38:09;;;;;;;65.60;32.57;;;;;;;0.31;58.50;102492.91;5031053;27;96901;-77
2023/02/06 02:41:16;;;;;;;61.93;30.43;;;;;;;0.39;58.90;102507.03;5021138;27;100922;-82
2023/02/06 02:43:47;;;;;;;71.07;31.37;;;;;;;0.38;58.36;102492.34;4994866;27;101477;-83
2023/02/06 02:46:21;;;;;;;63.23;31.77;;;;;;;0.41;58.74;102505.41;4997542;27;97413;-79
2023/02/06 02:48:50;;;;;;;59.70;30.43;;;;;;;0.16;58.99;102454.38;5010088;28;96821;-77
2023/02/06 02:51:17;;;;;;;55.90;30.47;;;;;;;0.39;59.18;102491.53;5011632;27;101686;-77
2023/02/06 02:53:42;;;;;;;64.13;30.27;;;;;;;0.39;58.60;102491.53;4998558;27;101403;-81
2023/02/06 02:56:20;;;;;;;64.27;32.00;;;;;;;0.40;58.79;102489.81;4995020;28;97459;-77
2023/02/06 02:58:57;;;;;;;58.97;31.23;;;;;;;0.41;59.25;102469.22;5008235;27;97357;-78
2023/02/06 03:01:30;;;;;;;61.67;29.37;;;;;;;0.45;58.88;102471.09;5011023;27;102057;-78
2023/02/06 03:03:59;;;;;;;61.43;30.10;;;;;;;0.47;58.82;102459.94;5002662;27;100733;-80
2023/02/06 03:06:39;;;;;;;56.13;28.03;;;;;;;0.45;58.37;102459.88;5028418;27;97164;-78
2023/02/06 03:09:20;;;;;;;55.20;27.93;;;;;;;0.44;58.85;102460.72;5028400;27;97323;-79
2023/02/06 03:11:56;;;;;;;51.33;28.50;;;;;;;0.44;58.93;102459.00;4985625;27;101492;-79
2023/02/06 03:14:33;;;;;;;56.87;26.77;;;;;;;0.43;58.66;102454.63;5007894;27;101358;-79
2023/02/06 03:17:04;;;;;;;60.17;27.17;;;;;;;0.41;58.52;102456.31;4996257;27;97145;-78
2023/02/06 03:19:34;;;;;;;58.50;29.60;;;;;;;0.45;58.79;102462.47;4999071;27;96933;-77
2023/02/06 03:22:00;;;;;;;53.70;27.83;;;;;;;0.46;59.06;102456.47;4990356;27;101588;-79
2023/02/06 03:24:28;;;;;;;55.43;27.67;;;;;;;0.46;58.52;102464.22;5026984;27;101236;-79
2023/02/06 03:26:57;;;;;;;57.63;27.43;;;;;;;0.40;58.89;102449.34;5042818;27;97190;-78
2023/02/06 03:29:23;;;;;;;54.63;27.57;;;;;;;0.44;58.38;102460.72;5067767;27;96844;-76
2023/02/06 03:31:55;;;;;;;50.03;25.90;;;;;;;0.39;58.55;102460.50;5051427;27;97944;-76
2023/02/06 03:34:42;;;;;;;54.20;25.75;;;;;;;0.40;58.39;102464.84;5045497;27;100891;-78
2023/02/06 03:37:08;;;;;;;50.00;25.83;;;;;;;0.36;58.57;102468.13;5040819;27;97289;-79
2023/02/06 03:39:34;;;;;;;58.53;28.90;;;;;;;0.32;58.24;102465.34;5069627;27;98456;-76
2023/02/06 03:42:00;;;;;;;53.53;27.47;;;;;;;0.30;58.90;102473.06;5062927;27;98014;-81
2023/02/06 03:44:31;;;;;;;58.17;28.00;;;;;;;0.29;58.54;102479.06;5045154;27;101044;-78
2023/02/06 03:46:58;;;;;;;63.13;30.17;;;;;;;0.29;58.65;102476.47;5067065;27;96726;-82
2023/02/06 03:49:24;;;;;;;55.20;27.70;;;;;;;0.31;58.33;102473.94;5048406;27;96825;-79
2023/02/06 03:51:53;;;;;;;54.10;27.80;;;;;;;0.31;58.46;102486.84;5043828;27;101230;-78
2023/02/06 03:54:20;;;;;;;59.20;28.57;;;;;;;0.24;58.81;102477.09;5067583;27;97517;-77
2023/02/06 03:56:57;;;;;;;53.37;27.47;;;;;;;0.28;58.84;102464.34;5055068;27;97426;-77
2023/02/06 03:59:23;;;;;;;50.67;25.23;;;;;;;0.26;58.70;102459.94;5049601;27;97226;-78
2023/02/06 04:01:55;;;;;;;51.07;26.80;;;;;;;0.32;58.29;102463.69;5063593;27;97426;-79
2023/02/06 04:04:27;;;;;;;51.45;25.10;;;;;;;0.31;58.30;102456.72;5051860;27;97979;-79
2023/02/06 04:07:03;;;;;;;51.63;26.10;;;;;;;0.33;58.89;102455.09;5036977;27;97210;-77
2023/02/06 04:09:28;;;;;;;52.07;24.10;;;;;;;0.32;58.32;102449.84;5051572;27;96997;-77
2023/02/06 04:11:54;;;;;;;44.80;22.50;;;;;;;0.18;58.05;102426.91;5035485;27;101272;-79
2023/02/06 04:14:19;;;;;;;46.93;22.43;;;;;;;0.30;57.86;102451.50;5034570;27;101823;-77
2023/02/06 04:16:45;;;;;;;48.63;22.60;;;;;;;0.28;57.91;102459.19;5037706;27;97175;-76
2023/02/06 04:19:11;;;;;;;43.77;22.77;;;;;;;0.27;57.94;102459.13;5065818;27;97610;-76
2023/02/06 04:21:36;;;;;;;43.10;23.30;;;;;;;0.33;58.09;102477.47;5045296;27;101438;-79
2023/02/06 04:24:02;;;;;;;47.77;24.13;;;;;;;0.14;58.28;102443.09;5037443;27;101401;-84
2023/02/06 04:26:27;;;;;;;48.43;25.43;;;;;;;0.28;57.78;102463.47;5054394;27;97222;-77
2023/02/06 04:28:53;;;;;;;51.17;25.57;;;;;;;0.20;58.27;102445.06;5054685;27;97373;-77
2023/02/06 04:31:18;;;;;;;49.97;24.57;;;;;;;0.32;58.66;102462.75;5069587;27;98001;-78
2023/02/06 04:33:44;;;;;;;58.97;28.93;;;;;;;0.32;58.45;102468.84;5066257;27;98428;-79
2023/02/06 04:36:09;;;;;;;51.00;25.37;;;;;;;0.32;58.74;102455.94;5071165;27;96733;-76
2023/02/06 04:38:35;;;;;;;49.40;25.70;;;;;;;0.28;58.73;102456.59;5037762;27;97209;-77
2023/02/06 04:41:02;;;;;;;51.77;24.47;;;;;;;0.26;58.60;102460.81;5049950;27;101630;-85
2023/02/06 04:43:28;;;;;;;55.10;25.03;;;;;;;0.34;59.02;102462.00;5043506;27;100958;-77
2023/02/06 04:45:53;;;;;;;49.83;24.90;;;;;;;0.34;58.55;102459.44;5046571;27;97983;-76
2023/02/06 04:48:19;;;;;;;46.03;23.13;;;;;;;0.31;58.44;102461.00;5064259;27;96844;-79
2023/02/06 04:50:44;;;;;;;51.07;25.80;;;;;;;0.30;58.59;102465.31;5060527;27;101776;-79
2023/02/06 04:53:10;;;;;;;48.10;25.13;;;;;;;0.16;58.70;102443.16;5057795;27;97395;-79
2023/02/06 04:55:35;;;;;;;48.63;23.47;;;;;;;0.32;58.59;102473.09;5042260;27;97340;-77
2023/02/06 04:58:02;;;;;;;45.83;24.77;;;;;;;0.31;58.91;102455.84;5054854;27;97635;-84
2023/02/06 05:00:27;;;;;;;56.23;25.93;;;;;;;0.14;58.53;102432.75;5052085;27;97812;-79
2023/02/06 05:02:53;;;;;;;49.23;23.80;;;;;;;0.18;59.08;102447.59;5049199;27;97402;-77
2023/02/06 05:05:18;;;;;;;52.57;24.83;;;;;;;0.23;58.72;102465.84;5018136;27;97313;-78
2023/02/06 05:07:44;;;;;;;49.47;24.60;;;;;;;0.18;58.93;102452.75;5050553;27;97067;-77
2023/02/06 05:10:10;;;;;;;54.00;25.40;;;;;;;0.21;59.40;102452.00;5037044;27;100081;-77
2023/02/06 05:12:35;;;;;;;55.97;26.50;;;;;;;0.21;59.08;102457.16;5029478;27;100914;-77
2023/02/06 05:15:01;;;;;;;56.30;26.03;;;;;;;0.21;59.33;102467.50;5066913;27;97202;-77
2023/02/06 05:17:27;;;;;;;54.37;26.97;;;;;;;0.15;59.03;102460.38;5057310;27;97806;-78
2023/02/06 05:19:52;;;;;;;47.60;24.27;;;;;;;0.23;59.49;102476.19;5066585;27;98214;-79
2023/02/06 05:22:18;;;;;;;50.33;25.90;;;;;;;0.22;59.47;102474.44;5070379;27;97530;-78
2023/02/06 05:24:43;;;;;;;47.27;24.87;;;;;;;0.19;59.17;102467.41;5052917;27;97726;-78
2023/02/06 05:27:09;;;;;;;51.10;24.77;;;;;;;0.17;59.27;102469.03;5033479;27;97159;-80
2023/02/06 05:29:34;;;;;;;55.37;27.80;;;;;;;0.15;59.85;102468.13;5051404;27;98158;-78
2023/02/06 05:32:00;;;;;;;53.23;27.23;;;;;;;0.14;59.78;102458.59;5039954;27;101441;-79
2023/02/06 05:34:25;;;;;;;50.40;26.47;;;;;;;0.05;59.45;102442.72;5058661;27;96850;-77
2023/02/06 05:36:51;;;;;;;53.03;26.17;;;;;;;0.12;59.03;102455.06;5053371;27;97308;-78
2023/02/06 05:39:16;;;;;;;57.47;26.43;;;;;;;0.14;59.41;102468.91;5052959;27;101346;-79
2023/02/06 05:41:42;;;;;;;51.60;25.27;;;;;;;0.12;59.56;102461.94;5052936;27;101014;-79
2023/02/06 05:44:09;;;;;;;57.53;26.43;;;;;;;0.02;59.30;102452.91;5053957;27;97142;-77
2023/02/06 05:46:36;;;;;;;53.20;25.77;;;;;;;0.14;59.22;102484.41;5033505;27;96889;-77
2023/02/06 05:49:02;;;;;;;52.13;25.53;;;;;;;0.13;59.64;102474.03;5048323;27;101681;-77
2023/02/06 05:51:27;;;;;;;51.47;26.03;;;;;;;0.17;59.21;102487.13;5048729;27;101384;-83
2023/02/06 05:53:53;;;;;;;57.00;25.23;;;;;;;0.14;59.22;102491.28;5061185;27;97036;-77
2023/02/06 05:56:18;;;;;;;56.10;27.40;;;;;;;-0.01;59.52;102460.53;5042046;27;97332;-79
2023/02/06 05:58:44;;;;;;;54.43;27.57;;;;;;;0.12;59.04;102480.03;5046206;27;101152;-76
2023/02/06 06:01:11;;;;;;;56.93;27.00;;;;;;;0.14;59.18;102483.53;5048314;27;101286;-78
2023/02/06 06:03:37;;;;;;;53.67;26.30;;;;;;;0.10;59.64;102489.41;5051205;27;96894;-77
2023/02/06 06:06:04;;;;;;;52.37;27.63;;;;;;;0.04;59.26;102487.44;5033598;27;97612;-80
2023/02/06 06:08:29;;;;;;;54.63;27.20;;;;;;;0.07;59.91;102489.28;5050624;27;100994;-80
2023/02/06 06:10:55;;;;;;;58.37;29.37;;;;;;;0.13;59.87;102489.53;5034077;27;101382;-78
2023/02/06 06:13:20;;;;;;;56.43;29.43;;;;;;;0.07;59.98;102473.78;5048074;27;97312;-80
2023/02/06 06:15:52;;;;;;;63.53;32.07;;;;;;;0.12;59.65;102482.63;5043181;27;97320;-77
2023/02/06 06:18:19;;;;;;;60.85;32.22;;;;;;;0.12;59.40;102474.88;5034372;27;101780;-81
2023/02/06 06:20:44;;;;;;;63.23;31.90;;;;;;;0.08;59.45;102455.75;5031988;27;101117;-81
2023/02/06 06:23:10;;;;;;;59.47;30.07;;;;;;;0.07;59.11;102458.28;5035091;27;96762;-76
2023/02/06 06:25:36;;;;;;;63.67;30.87;;;;;;;0.10;59.61;102456.69;5034806;27;97328;-77
2023/02/06 06:28:03;;;;;;;65.83;31.73;;;;;;;-0.02;59.96;102441.56;5047886;27;99002;-83
2023/02/06 06:30:28;;;;;;;73.80;33.50;;;;;;;-0.03;59.62;102432.06;5031602;27;101378;-78
2023/02/06 06:32:54;;;;;;;66.80;32.53;;;;;;;0.02;59.92;102447.75;5033723;27;96797;-77
2023/02/06 06:35:19;;;;;;;69.83;34.10;;;;;;;0.09;59.58;102462.69;5050403;27;97020;-78
2023/02/06 06:37:45;;;;;;;64.70;32.40;;;;;;;0.09;60.16;102454.03;5066982;27;97409;-77
2023/02/06 06:40:12;;;;;;;67.83;34.27;;;;;;;0.08;60.24;102445.41;5064588;27;98387;-79
2023/02/06 06:42:37;;;;;;;71.57;33.97;;;;;;;0.09;59.96;102442.03;5049009;27;97555;-79
2023/02/06 06:45:04;;;;;;;64.70;31.27;;;;;;;0.03;59.71;102435.69;5045999;27;97161;-79
2023/02/06 06:47:29;;;;;;;67.17;30.60;;;;;;;0.09;59.88;102449.78;5031916;27;101705;-77
2023/02/06 06:49:55;;;;;;;67.37;32.57;;;;;;;0.11;60.18;102453.28;5049916;27;97411;-77
2023/02/06 06:52:20;;;;;;;60.60;31.40;;;;;;;0.09;59.79;102454.03;5046950;27;97395;-77
2023/02/06 06:54:46;;;;;;;66.60;32.63;;;;;;;0.14;60.27;102468.03;5067422;27;96966;-76
2023/02/06 06:57:12;;;;;;;66.20;32.00;;;;;;;0.11;59.94;102465.34;5068019;27;97946;-78
2023/02/06 06:59:38;;;;;;;68.00;32.63;;;;;;;0.19;60.11;102482.03;5044335;27;101006;-80
2023/02/06 07:02:03;;;;;;;65.87;32.23;;;;;;;0.18;60.51;102480.28;5051838;27;97512;-80
2023/02/06 07:04:32;;;;;;;66.90;32.10;;;;;;;0.24;59.93;102492.59;5049944;27;97532;-78
2023/02/06 07:06:58;;;;;;;65.43;31.77;;;;;;;0.23;60.54;102483.94;5034785;27;101216;-79
2023/02/06 07:09:23;;;;;;;58.53;31.40;;;;;;;0.21;60.44;102486.47;5041693;27;101243;-79
2023/02/06 07:11:49;;;;;;;62.03;32.10;;;;;;;0.24;60.33;102483.13;5036151;27;96830;-80
2023/02/06 07:14:15;;;;;;;71.77;33.37;;;;;;;0.29;60.12;102491.97;5046256;27;97622;-77
2023/02/06 07:16:41;;;;;;;63.40;31.50;;;;;;;0.29;60.33;102502.31;5055477;27;97378;-76
2023/02/06 07:19:07;;;;;;;62.73;30.90;;;;;;;0.30;60.34;102498.88;5043041;27;97925;-79
2023/02/06 07:21:33;;;;;;;67.37;32.50;;;;;;;0.28;60.52;102491.88;5037928;27;97453;-77
2023/02/06 07:24:01;;;;;;;67.07;32.37;;;;;;;0.24;60.05;102479.66;5044242;27;96861;-77
2023/02/06 07:26:26;;;;;;;64.93;30.60;;;;;;;0.35;59.90;102493.91;5035119;27;100907;-77
2023/02/06 07:28:52;;;;;;;66.33;31.70;;;;;;;0.36;60.35;102501.72;5044993;27;101346;-78
2023/02/06 07:31:17;;;;;;;67.10;32.07;;;;;;;0.35;60.22;102491.31;5038900;27;97107;-78
2023/02/06 07:33:43;;;;;;;63.13;32.93;;;;;;;0.36;60.15;102499.16;5051749;27;97492;-80
2023/02/06 07:36:10;;;;;;;67.23;37.37;;;;;;;0.17;60.31;102463.00;5058887;27;97942;-84
2023/02/06 07:38:35;;;;;;;68.17;33.13;;;;;;;0.43;60.19;102501.16;5030630;27;99004;-76
2023/02/06 07:41:02;;;;;;;66.93;34.53;;;;;;;0.40;60.11;102490.69;5048350;27;97064;-77
2023/02/06 07:43:28;;;;;;;66.00;32.40;;;;;;;0.56;59.67;102512.91;5063026;27;97105;-76
2023/02/06 07:45:58;;;;;;;63.87;34.13;;;;;;;0.49;59.83;102494.47;5054666;27;97894;-77
2023/02/06 07:48:23;;;;;;;67.37;35.63;;;;;;;0.65;59.89;102513.28;5072079;27;97440;-81
2023/02/06 07:50:48;;;;;;;67.17;32.90;;;;;;;0.74;59.79;102520.53;5044331;27;97342;-77
2023/02/06 07:53:14;;;;;;;66.20;34.40;;;;;;;0.78;59.49;102509.50;5033693;27;98568;-77
2023/02/06 07:55:40;;;;;;;62.10;32.27;;;;;;;0.97;59.42;102511.13;5051354;27;101253;-77
2023/02/06 07:58:05;;;;;;;67.13;31.60;;;;;;;1.26;59.68;102508.81;5022211;27;100623;-77
2023/02/06 08:00:31;;;;;;;65.53;33.77;;;;;;;1.59;59.65;102506.63;5048832;27;96796;-76
2023/02/06 08:02:56;;;;;;;71.23;34.40;;;;;;;1.88;58.87;102491.28;5071343;27;96928;-75
2023/02/06 08:05:22;;;;;;;64.57;33.40;;;;;;;2.07;57.84;102506.66;5036514;27;100902;-76
2023/02/06 08:07:50;;;;;;;57.10;30.47;;;;;;;2.16;57.11;102511.28;5037966;27;101767;-79
2023/02/06 08:10:15;;;;;;;59.43;30.90;;;;;;;2.15;56.52;102514.69;5051096;27;96752;-79
2023/02/06 08:12:41;;;;;;;58.50;29.10;;;;;;;2.22;56.25;102511.50;5049596;27;96913;-82
2023/02/06 08:15:07;;;;;;;51.63;27.27;;;;;;;2.47;55.95;102518.41;5068631;27;97589;-78
2023/02/06 08:17:33;;;;;;;41.17;23.07;;;;;;;2.67;55.23;102514.75;5042178;27;101720;-78
2023/02/06 08:19:59;;;;;;;36.10;20.93;;;;;;;2.84;53.65;102515.31;5043830;27;97115;-78
2023/02/06 08:22:24;;;;;;;43.10;22.40;;;;;;;2.94;53.16;102509.63;5035828;27;97645;-78
2023/02/06 08:24:50;;;;;;;38.57;20.73;;;;;;;3.04;52.41;102503.00;5027205;27;101283;-80
2023/02/06 08:27:16;;;;;;;39.60;20.33;;;;;;;3.13;52.11;102507.59;5060529;27;98469;-76
2023/02/06 08:29:41;;;;;;;36.23;19.13;;;;;;;3.18;51.68;102506.91;5042813;27;97380;-77
2023/02/06 08:32:08;;;;;;;37.30;18.97;;;;;;;3.27;51.29;102495.94;5052434;27;97313;-76
2023/02/06 08:34:34;;;;;;;40.17;21.57;;;;;;;3.27;50.54;102501.13;5046235;27;101499;-77
2023/02/06 08:37:00;;;;;;;35.33;18.57;;;;;;;3.20;50.46;102504.38;5052532;27;101219;-76
2023/02/06 08:39:25;;;;;;;36.53;19.07;;;;;;;3.13;50.11;102505.88;5039141;27;97148;-77
2023/02/06 08:41:51;;;;;;;40.93;21.50;;;;;;;3.00;50.56;102502.88;5066003;27;97052;-77
2023/02/06 08:44:17;;;;;;;41.27;20.87;;;;;;;3.05;50.10;102504.75;5047857;27;97433;-77
2023/02/06 08:46:44;;;;;;;33.63;19.10;;;;;;;2.87;50.16;102478.22;5028438;27;100896;-81
2023/02/06 08:49:13;;;;;;;36.50;18.53;;;;;;;2.98;50.25;102494.16;5049089;27;97990;-86
2023/02/06 08:51:38;;;;;;;36.30;18.33;;;;;;;3.08;49.89;102488.41;5041103;27;97296;-82
2023/02/06 08:54:06;;;;;;;42.43;20.77;;;;;;;3.30;49.57;102496.03;5030732;27;101205;-84
2023/02/06 08:56:33;;;;;;;44.87;21.50;;;;;;;3.48;50.11;102500.88;5031309;27;101350;-82
2023/02/06 08:58:59;;;;;;;37.10;20.00;;;;;;;3.51;49.13;102492.31;5026694;27;98109;-81
2023/02/06 09:01:26;;;;;;;37.67;17.83;;;;;;;3.24;48.25;102462.09;5043662;27;97315;-80
2023/02/06 09:04:01;;;;;;;37.53;19.10;;;;;;;3.37;48.10;102495.38;5034333;27;101474;-81
2023/02/06 09:06:27;;;;;;;37.50;19.87;;;;;;;3.21;48.31;102493.16;5058551;27;98483;-80
2023/02/06 09:08:54;;;;;;;34.27;19.10;;;;;;;3.11;48.69;102483.31;5043516;27;97304;-83
2023/02/06 09:11:22;;;;;;;39.27;19.43;;;;;;;3.15;48.33;102480.84;5032629;27;96813;-82
2023/02/06 09:13:48;;;;;;;35.30;19.33;;;;;;;3.19;48.36;102497.41;5057373;27;98055;-83
2023/02/06 09:16:15;;;;;;;36.23;17.03;;;;;;;3.31;48.36;102489.09;5028844;27;101611;-81
2023/02/06 09:18:41;;;;;;;32.83;16.90;;;;;;;3.48;48.06;102487.91;5044065;27;97902;-81
2023/02/06 09:21:06;;;;;;;33.27;17.10;;;;;;;3.54;48.31;102500.19;5047116;27;97008;-80
2023/02/06 09:23:33;;;;;;;39.47;17.40;;;;;;;3.51;48.55;102492.31;5050398;27;101120;-82
2023/02/06 09:25:58;;;;;;;34.87;18.63;;;;;;;3.50;47.88;102498.34;5047101;27;101191;-82
2023/02/06 09:28:24;;;;;;;36.60;17.97;;;;;;;3.34;47.60;102484.00;5046029;27;97581;-80
2023/02/06 09:30:49;;;;;;;32.30;16.90;;;;;;;3.38;48.11;102507.53;5044630;27;96935;-83
2023/02/06 09:33:15;;;;;;;29.97;15.50;;;;;;;3.49;48.08;102509.53;5044393;27;100921;-81
2023/02/06 09:35:40;;;;;;;25.93;13.53;;;;;;;3.50;47.69;102509.59;5039802;27;97808;-81
2023/02/06 09:38:06;;;;;;;29.80;15.70;;;;;;;3.56;47.38;102503.72;5042669;27;96998;-80
2023/02/06 09:40:32;;;;;;;27.00;14.30;;;;;;;3.59;46.64;102512.47;5031054;27;97657;-80
2023/02/06 09:42:58;;;;;;;29.33;12.77;;;;;;;3.47;46.62;102514.72;5062265;27;98582;-80
2023/02/06 09:45:26;;;;;;;24.50;12.73;;;;;;;3.52;46.80;102518.34;5050994;27;97875;-79
2023/02/06 09:47:56;;;;;;;21.33;11.23;;;;;;;3.56;46.69;102496.78;5060391;27;97229;-80
2023/02/06 09:50:26;;;;;;;18.60;10.30;;;;;;;3.69;46.02;102492.81;5026301;27;96793;-81
2023/02/06 09:52:59;;;;;;;27.70;14.13;;;;;;;4.03;46.08;102499.84;5042942;27;98293;-84
2023/02/06 09:55:37;;;;;;;23.63;13.70;;;;;;;4.38;45.35;102504.25;5046163;27;101266;-82
2023/02/06 09:58:22;;;;;;;15.40;8.43;;;;;;;4.65;43.68;102498.88;5044381;27;97286;-80
2023/02/06 10:01:10;;;;;;;12.63;6.63;;;;;;;4.98;43.67;102493.63;5030266;27;97085;-81
2023/02/06 10:03:41;;;;;;;17.27;7.70;;;;;;;5.51;42.97;102491.31;5041292;27;101532;-83
2023/02/06 10:06:28;;;;;;;10.23;5.57;;;;;;;5.92;41.66;102464.34;5051279;27;97891;-81
2023/02/06 10:09:03;;;;;;;20.57;9.93;;;;;;;6.20;40.41;102484.03;5044029;27;96981;-81
2023/02/06 10:11:38;;;;;;;18.60;11.00;;;;;;;6.11;41.05;102483.00;5050654;27;97383;-83
2023/02/06 10:14:09;;;;;;;15.77;7.30;;;;;;;5.87;39.81;102457.31;5058944;27;101731;-82
2023/02/06 10:16:52;;;;;;;12.90;7.35;;;;;;;5.52;39.73;102468.75;5066943;27;97511;-81
2023/02/06 10:19:28;;;;;;;19.47;10.37;;;;;;;5.25;41.58;102482.94;5040165;27;97417;-81
2023/02/06 10:22:25;;;;;;;19.40;9.83;;;;;;;5.36;42.04;102472.78;5043159;27;97456;-81
2023/02/06 10:25:10;;;;;;;15.60;8.67;;;;;;;5.47;40.59;102489.50;5059444;27;98117;-82
2023/02/06 10:27:37;;;;;;;15.90;8.00;;;;;;;5.19;41.38;102483.69;5050422;27;101950;-82
2023/02/06 10:30:02;;;;;;;18.50;10.30;;;;;;;4.78;41.74;102461.91;5064035;27;97331;-82
2023/02/06 10:32:46;;;;;;;26.27;10.93;;;;;;;4.68;41.86;102492.03;5040824;27;97137;-80
2023/02/06 10:35:19;;;;;;;21.00;12.33;;;;;;;4.43;42.79;102479.25;5039137;27;101705;-80
2023/02/06 10:38:17;;;;;;;24.03;12.77;;;;;;;4.54;43.11;102499.50;5065681;27;101442;-83
2023/02/06 10:40:50;;;;;;;23.13;12.33;;;;;;;4.46;42.53;102501.00;5014658;27;97878;-82
2023/02/06 10:43:39;;;;;;;19.90;10.33;;;;;;;4.03;42.90;102492.06;5033256;27;97314;-84
2023/02/06 10:46:35;;;;;;;18.10;9.47;;;;;;;4.05;43.18;102508.59;5042512;27;98589;-82
2023/02/06 10:49:18;;;;;;;19.93;10.23;;;;;;;3.95;43.80;102498.75;5055034;27;97968;-82
2023/02/06 10:51:47;;;;;;;17.87;9.50;;;;;;;3.99;44.12;102494.56;5044229;27;96910;-83
2023/02/06 10:54:43;;;;;;;19.33;10.07;;;;;;;3.99;43.91;102492.81;5025893;27;97261;-83
2023/02/06 10:57:15;;;;;;;17.93;10.80;;;;;;;3.97;43.86;102494.50;5060730;27;98090;-83
2023/02/06 10:59:46;;;;;;;20.53;11.00;;;;;;;4.05;43.66;102472.19;5043098;27;97896;-83
2023/02/06 11:02:23;;;;;;;17.15;10.52;;;;;;;3.95;43.81;102453.72;5033515;27;97181;-83
2023/02/06 11:05:02;;;;;;;18.20;9.73;;;;;;;4.10;43.65;102487.91;5035620;27;97390;-80
2023/02/06 11:07:37;;;;;;;17.43;10.13;;;;;;;3.99;43.94;102485.03;5045758;27;98645;-84
2023/02/06 11:10:04;;;;;;;17.67;9.63;;;;;;;3.86;44.05;102463.00;5040608;27;101788;-84
2023/02/06 11:13:02;;;;;;;21.53;9.63;;;;;;;3.89;43.64;102474.34;5028098;27;97237;-85
2023/02/06 11:15:53;;;;;;;14.60;8.33;;;;;;;3.94;43.84;102489.22;5038261;27;99023;-85
2023/02/06 11:18:21;;;;;;;21.17;10.20;;;;;;;3.91;44.43;102470.94;5036317;27;101557;-87
2023/02/06 11:20:48;;;;;;;21.27;10.60;;;;;;;3.88;44.33;102446.59;5063377;27;98079;-84
2023/02/06 11:23:21;;;;;;;24.17;11.03;;;;;;;4.20;43.79;102470.84;5028600;27;96810;-84